Sikuliaq — WDG7520 — position and weather

sailwx.info

Track history (hours):
 
Tides and Currents Weather Stations Pressure Air Temp Water Temp Dewpoint Dewpoint Depression Visibility Wind Speed Wind Dir Waves Ship Positions

Oceanographic research ship Sikuliaq (USA)

Owner: Mackay Communications, Raleigh, NC. More information available from US FCC via Universal Licensing System.

Last reported at 2019-Dec-15 10:00 UTC. Time now 2019-Dec-15 11:03 UTC.
Position N 49°24' W 140°00'.

Length 80 m; draft 6.2 m.

Type: Other ship. MMSI: 338417000.

Wind from 200 at 22 knots

Barometer 1003.6 mb
Air temperature 10.8 ° C
Dewpoint 10.3 ° C
Water temperature 10.2 ° C

Date/timePositionNaut miles runAvg speedWind from/ knotsBaromVisibWave heightAir tempDewpointWater temp
2019-Dec-15 10:00N 49°24' W 140°00'1313.2 200 / 221003.6 10.810.310.2
2019-Dec-15 09:00N 49°30' W 140°18'8 7.8 200 / 211003.9 10.610.410.1
2019-Dec-15 08:00N 49°30' W 140°30'1313.1 210 / 211004.0 10.410.310.1
2019-Dec-15 07:00N 49°36' W 140°48'8 7.8 220 / 211004.0 10.310.310.1
2019-Dec-15 06:00N 49°36' W 141°00'1313.1 210 / 201004.0 10.310.310.0
2019-Dec-15 05:00N 49°42' W 141°18'8 7.8 200 / 211004.0 10.110.1 9.9
2019-Dec-15 04:00N 49°42' W 141°30'1313.1 200 / 201004.1 10.1 9.9
2019-Dec-15 03:00N 49°48' W 141°48'8 7.7 200 / 191004.2 10.1 10.0
2019-Dec-15 02:00N 49°48' W 142°00'8 7.7 190 / 191004.4 10.010.0 9.9
2019-Dec-15 01:00N 49°48' W 142°12'4 3.9 200 / 151004.8 10.010.010.0
2019-Dec-15 00:00N 49°48' W 142°06'0 0.0 200 / 151005.1 10.010.010.0
2019-Dec-14 23:00N 49°48' W 142°06'4 3.9 210 / 161005.6 10.1 9.9 9.9
2019-Dec-14 22:00N 49°48' W 142°12'0 0.0 160 / 191006.0 9.5 9.5 9.9
2019-Dec-14 21:00N 49°48' W 142°12'4 3.9 160 / 201007.0 9.4 9.1 9.9
2019-Dec-14 20:00N 49°48' W 142°06'4 3.9 160 / 231007.9 9.0 8.4 9.9
2019-Dec-14 19:00N 49°48' W 142°12'8 7.7 170 / 271008.3 8.3 7.4 9.9
2019-Dec-14 18:00N 49°48' W 142°24'1211.6 170 / 251008.7 8.0 7.1 9.9
2019-Dec-14 17:00N 49°48' W 142°42'1211.6 180 / 231009.0 7.7 6.3 9.8
2019-Dec-14 16:00N 49°48' W 143°00'10 9.8 190 / 231009.2 7.9 5.210.0
2019-Dec-14 15:00N 49°54' W 143°12'1211.6 190 / 211009.5 8.5 3.210.0
2019-Dec-14 14:00N 49°54' W 143°30'1211.6 180 / 191009.9 8.2 1.710.0
2019-Dec-14 13:00N 49°54' W 143°48'8 7.7 200 / 161010.7 8.0 2.3 9.9
2019-Dec-14 12:00N 49°54' W 144°00'1211.6 210 / 161010.7 7.9-0.3 9.9
2019-Dec-14 11:00N 49°54' W 144°18'1211.6 220 / 121011.2 7.6 0.310.0
2019-Dec-14 10:00N 49°54' W 144°36'8 7.7 230 / 151011.5 7.5 0.610.1
2019-Dec-14 09:00N 49°54' W 144°48'1211.6 240 / 151011.9 7.5-0.4 9.9
2019-Dec-14 08:00N 49°54' W 145°06'8 7.7 250 / 131012.0 7.2 0.8 9.9
2019-Dec-14 07:00N 49°54' W 145°18'0 0.0 250 / 151011.8 7.1 0.8 9.9
2019-Dec-14 06:00N 49°54' W 145°18'0 0.0 280 / 161011.9 7.3-1.0 9.9
2019-Dec-14 05:00N 49°54' W 145°18'0 0.0 270 / 181011.6 7.4-0.1 9.9
2019-Dec-14 04:00N 49°54' W 145°18'4 3.9 300 / 191011.1 7.3-0.6 9.9
2019-Dec-14 03:00N 49°54' W 145°12'6 6.0 300 / 201010.5 7.2 0.8 9.9
2019-Dec-14 02:00N 50°00' W 145°12'0 0.0 300 / 291009.2 7.3-1.2 9.9
2019-Dec-14 01:00N 50°00' W 145°12'4 3.9 290 / 231008.6 7.2 0.810.5
2019-Dec-14 00:00N 50°00' W 145°06'0 0.0 300 / 271007.6 7.5 0.1 9.9
2019-Dec-13 23:00N 50°00' W 145°06'0 0.0 300 / 221006.9 7.4 2.0 9.9
2019-Dec-13 22:00N 50°00' W 145°06'0 0.0 300 / 261006.3 7.2 3.1 9.9
2019-Dec-13 21:00N 50°00' W 145°06'8 7.7 330 / 141006.1 6.1 2.5 9.9
2019-Dec-13 20:00N 50°00' W 145°18'1313.0 340 / 251005.3 5.4 2.510.0
2019-Dec-13 19:00N 49°54' W 145°36'1211.6 320 / 131005.4 7.2 1.510.0
2019-Dec-13 18:00N 49°54' W 145°54'10 9.8 330 / 101005.0 6.3 2.4 9.9
2019-Dec-13 17:00N 49°48' W 146°06'75 2.8 1004.5 6.1 2.3 9.8
2019-Dec-12 14:00N 49°36' W 148°00'0 0.0 260 / 29994.6 7.9 1.5 9.6
2019-Dec-12 13:00N 49°36' W 148°00'0 0.0 260 / 34993.8 7.6-0.1 9.6
2019-Dec-12 12:00N 49°36' W 148°00'4 3.9 250 / 42992.7 7.7 0.6 9.7
2019-Dec-12 11:00N 49°36' W 148°06'4 3.9 250 / 36991.3 7.1 1.2 9.8
2019-Dec-12 10:00N 49°36' W 148°12'0 0.0 260 / 40990.4 7.7 0.7 9.7
2019-Dec-12 09:00N 49°36' W 148°12'0 0.0 260 / 42989.5 7.2 0.9 9.7
2019-Dec-12 08:00N 49°36' W 148°12'0 0.0 250 / 41987.9 7.7 0.9 9.7
2019-Dec-12 07:00N 49°36' W 148°12'6 6.0 260 / 39987.1 7.7-1.0 9.7
2019-Dec-12 06:00N 49°30' W 148°12'0 0.0 260 / 43986.4 7.6-1.2 9.8
2019-Dec-12 05:00N 49°30' W 148°12'4 3.9 260 / 40985.5 6.7 1.8 9.8
2019-Dec-12 04:00N 49°30' W 148°18'0 0.0 260 / 36984.7 7.4 2.0 9.8
2019-Dec-12 03:00N 49°30' W 148°18'0 0.0 260 / 35983.7 7.9 2.0 9.8
2019-Dec-12 02:00N 49°30' W 148°18'4 3.9 260 / 43982.5 8.0 0.7 9.8
2019-Dec-12 01:00N 49°30' W 148°24'0 0.0 270 / 39981.6 8.2 1.7 9.8
2019-Dec-12 00:00N 49°30' W 148°24'4 3.9 270 / 36980.6 7.6 3.4 9.8
2019-Dec-11 23:00N 49°30' W 148°30'0 0.0 270 / 44979.2 8.1 3.2 9.8
2019-Dec-11 22:00N 49°30' W 148°30'4 3.9 280 / 48978.3 7.6 2.8 9.8
2019-Dec-11 21:00N 49°30' W 148°36'0 0.0 270 / 42977.1 7.9 4.1 9.8
2019-Dec-11 20:00N 49°30' W 148°36'4 3.9 270 / 40976.2 7.0 3.3 9.8
2019-Dec-11 19:00N 49°30' W 148°42'4 3.9 270 / 39974.3 8.3 4.7 9.8
2019-Dec-11 18:00N 49°30' W 148°48'1211.7 270 / 23973.2 8.7 5.1 9.8
2019-Dec-11 17:00N 49°30' W 149°06'1211.7 280 / 34971.8 7.8 5.3 9.8
2019-Dec-11 16:00N 49°30' W 149°24'8 7.8 280 / 26970.7 8.3 5.510.0
2019-Dec-11 15:00N 49°30' W 149°36'1211.7 280 / 27969.6 8.3 5.8 9.9
2019-Dec-11 14:00N 49°30' W 149°54'1211.7 280 / 24968.8 8.1 6.8 9.8
2019-Dec-11 13:00N 49°30' W 150°12'1313.2 290 / 27967.6 8.9 6.7 9.8
2019-Dec-11 12:00N 49°24' W 150°30'8 7.8 280 / 31966.7 8.3 7.0 9.8
2019-Dec-11 11:00N 49°24' W 150°42'1313.2 280 / 25966.3 7.5 5.1 9.6
2019-Dec-11 10:00N 49°18' W 151°00'8 7.8 280 / 18965.9 8.2 6.7 9.6
2019-Dec-11 09:00N 49°18' W 151°12'8 7.8 270 / 16966.0 7.8 5.9 9.6
2019-Dec-11 08:00N 49°18' W 151°24'7 7.2 280 / 25965.4 7.8 5.9 9.6
2019-Dec-11 07:00N 49°24' W 151°30'10 9.8 290 / 22964.9 8.2 7.3 9.5
2019-Dec-11 06:00N 49°30' W 151°42'20 9.8 300 / 18964.7 8.5 7.5 9.4
2019-Dec-11 04:00N 49°42' W 152°06'10 9.8 320 / 11964.9 8.9 7.7 9.2
2019-Dec-11 03:00N 49°48' W 152°18'8 7.7 330 / 10965.0 8.9 7.9 9.3
2019-Dec-11 02:00N 49°48' W 152°30'10 9.8 340 / 8964.9 9.0 7.6 9.2
2019-Dec-11 01:00N 49°54' W 152°42'1211.6 010 / 7965.0 9.0 7.5 9.3
2019-Dec-11 00:00N 49°54' W 153°00'10 9.8 040 / 8965.0 9.0 7.5 9.1
2019-Dec-10 23:00N 50°00' W 153°12'4 3.9 070 / 10964.9 8.9 7.3 9.0
2019-Dec-10 22:00N 50°00' W 153°18'0 0.0 110 / 12965.0 8.7 7.6 8.9
2019-Dec-10 21:00N 50°00' W 153°18'0 0.0 100 / 13965.0 8.8 8.1 8.9
2019-Dec-10 20:00N 50°00' W 153°18'4 3.9 070 / 11965.6 8.7 7.9 8.9
2019-Dec-10 19:00N 50°00' W 153°12'0 0.0 010 / 30966.5 6.4 6.3 8.9
2019-Dec-10 17:00N 50°00' W 153°12'0 0.0 040 / 32969.2 6.5 4.8 9.0
2019-Dec-10 16:00N 50°00' W 153°12'0 0.0 050 / 33970.8 6.7 5.0 8.9
2019-Dec-10 15:00N 50°00' W 153°12'0 0.0 050 / 32973.1 6.5 3.8 8.9
2019-Dec-10 14:00N 50°00' W 153°12'0 0.0 070 / 27975.1 6.6 4.1 8.9
2019-Dec-10 13:00N 50°00' W 153°12'7 7.1 090 / 27977.5 6.6 3.3 8.9
2019-Dec-10 12:00N 50°06' W 153°18'7 7.1 080 / 26978.5 7.9 3.5 8.7
2019-Dec-10 11:00N 50°12' W 153°24'1312.6 080 / 17980.7 6.9 3.5 8.5
2019-Dec-10 10:00N 50°24' W 153°30'7 7.1 100 / 15982.1 6.5 3.1 8.4
2019-Dec-10 09:00N 50°30' W 153°36'7 7.1 160 / 8983.6 5.9 2.7 8.3
2019-Dec-10 08:00N 50°36' W 153°42'1312.6 170 / 15984.2 5.6 1.9 8.3
2019-Dec-10 07:00N 50°48' W 153°48'7 7.1 160 / 17984.7 5.4 2.0 8.3
2019-Dec-10 06:00N 50°54' W 153°54'7 7.1 160 / 11985.2 5.1 1.4 8.4
2019-Dec-10 05:00N 51°00' W 154°00'1312.6 190 / 21985.4 4.9 2.2 8.4
2019-Dec-10 04:00N 51°12' W 154°06'7 7.1 190 / 11985.4 5.6 1.5 8.4
2019-Dec-10 03:00N 51°18' W 154°12'6 6.0 210 / 15984.8 5.6 1.2 8.4
2019-Dec-10 02:00N 51°24' W 154°12'6 6.0 200 / 13984.2 5.6 1.5 8.4
2019-Dec-10 01:00N 51°30' W 154°12'6 6.0 210 / 15983.7 5.3 0.8 8.4
2019-Dec-10 00:00N 51°24' W 154°12'0 0.0 230 / 11983.0 4.8 0.8 8.4
2019-Dec-09 23:00N 51°24' W 154°12'0 0.0 240 / 16982.6 4.1 1.2 8.4
2019-Dec-09 22:00N 51°24' W 154°12'0 0.0 210 / 8982.2 4.6 1.6 8.4
2019-Dec-09 21:00N 51°24' W 154°12'0 0.0 260 / 11982.0 4.0 1.9 8.5
2019-Dec-09 20:00N 51°24' W 154°12'0 0.0 250 / 14981.6 4.4 1.5 8.4
2019-Dec-09 19:00N 51°24' W 154°12'0 0.0 200 / 11980.9 4.8 1.7 8.4
2019-Dec-09 18:00N 51°24' W 154°12'6 6.0 170 / 13980.2 4.0 1.4 8.5
2019-Dec-09 17:00N 51°30' W 154°12'7 7.5 210 / 11979.6 5.3 1.2 8.4
2019-Dec-09 16:00N 51°30' W 154°00'7 7.5 200 / 11979.8 5.0 1.7 8.5
2019-Dec-09 15:00N 51°30' W 153°48'7 7.1 190 / 26979.3 4.8 0.7 8.5
2019-Dec-09 14:00N 51°36' W 153°42'7 7.5 200 / 26979.0 6.4-1.5 8.4
2019-Dec-09 13:00N 51°36' W 153°30'7 7.5 220 / 30978.6 6.2-1.1 8.4
2019-Dec-09 12:00N 51°36' W 153°18'4 3.7 230 / 29978.1 6.4 0.7 8.6
2019-Dec-09 11:00N 51°36' W 153°12'10 9.6 220 / 30977.2 5.4 2.0 8.7
2019-Dec-09 10:00N 51°42' W 153°00'4 3.7 230 / 30976.2 7.0 2.8 8.7
2019-Dec-09 09:00N 51°42' W 153°06'10 9.5 240 / 34974.8 7.0 2.5 8.4
2019-Dec-09 08:00N 51°48' W 153°18'1312.6 250 / 31973.5 6.8 3.5 8.4
2019-Dec-09 07:00N 51°54' W 153°36'7 7.0 250 / 40970.4 6.7 3.4 8.2
2019-Dec-09 06:00N 52°00' W 153°42'10 9.5 260 / 37968.2 6.6 3.4 8.2
2019-Dec-09 05:00N 52°06' W 153°54'7 7.0 260 / 37965.6 6.2 4.4 8.1
2019-Dec-09 04:00N 52°12' W 154°00'7 7.0 270 / 35963.5 6.1 5.2 7.8
2019-Dec-09 03:00N 52°18' W 154°06'1312.5 240 / 22962.2 7.6 7.6 7.7
2019-Dec-09 02:00N 52°30' W 154°12'0 0.0 110 / 17962.7 8.8 8.8 7.9
2019-Dec-09 01:00N 52°30' W 154°12'4 3.7 110 / 23964.6 9.0 9.0 7.8
2019-Dec-09 00:00N 52°30' W 154°18'4 3.7 120 / 22966.7 8.8 8.8 7.9
2019-Dec-08 23:00N 52°30' W 154°12'0 0.0 130 / 20968.7 9.0 9.0 7.9
2019-Dec-08 22:00N 52°30' W 154°12'0 0.0 130 / 22969.9 9.0 7.8
2019-Dec-08 21:00N 52°30' W 154°12'0 0.0 040 / 24972.4 7.4 7.4 7.9
2019-Dec-08 20:00N 52°30' W 154°12'0 0.0 020 / 37975.5 5.8 5.2 7.8
2019-Dec-08 18:00N 52°30' W 154°12'9 9.4 050 / 41982.6 4.8 3.7 7.9
2019-Dec-08 17:00N 52°36' W 154°24'9 9.4 060 / 29987.1 5.7 3.1 7.9
2019-Dec-08 16:00N 52°42' W 154°36'9 9.4 070 / 28989.4 7.0 2.4 7.8
2019-Dec-08 15:00N 52°48' W 154°48'7 7.3 080 / 21992.2 7.0 2.6 7.8
2019-Dec-08 14:00N 52°48' W 155°00'1212.4 100 / 18994.1 7.0 2.2 7.7
2019-Dec-08 13:00N 52°54' W 155°18'7 7.2 110 / 16995.3 7.0 2.7 7.6
2019-Dec-08 12:00N 52°54' W 155°30'9 9.4 140 / 19996.5 7.1 1.0 7.7
2019-Dec-08 11:00N 53°00' W 155°42'1110.8 160 / 20996.9 6.7 1.6 7.6
2019-Dec-08 10:00N 53°00' W 156°00'9 9.4 170 / 34996.5 6.0 0.5 7.5
2019-Dec-08 09:00N 53°06' W 156°12'1110.8 180 / 23996.8 6.6 1.4 7.3
2019-Dec-08 08:00N 53°06' W 156°30'7 7.2 190 / 20996.2 6.4 2.0 7.4
2019-Dec-08 07:00N 53°06' W 156°42'1212.4 210 / 19995.0 6.5 0.9 7.3
2019-Dec-08 06:00N 53°12' W 157°00'7 7.2 200 / 22994.7 6.5 1.4 7.2
2019-Dec-08 05:00N 53°12' W 157°12'1110.8 210 / 19994.2 6.3 1.5 7.4
2019-Dec-08 04:00N 53°12' W 157°30'7 7.0 210 / 22993.4 6.6 0.3 7.5
2019-Dec-08 03:00N 53°18' W 157°24'1312.5 220 / 24992.8 6.2 0.2 7.4
2019-Dec-08 02:00N 53°30' W 157°18'0 0.0 230 / 22991.8 6.0 0.7 7.8
2019-Dec-08 01:00N 53°30' W 157°18'4 3.6 230 / 23990.7 6.3 0.9 7.7
2019-Dec-08 00:00N 53°30' W 157°24'0 0.0 230 / 23989.6 6.1 0.3 7.8
2019-Dec-07 23:00N 53°30' W 157°24'0 0.0 230 / 22988.6 6.0 0.6 7.8
2019-Dec-07 22:00N 53°30' W 157°24'0 0.0 240 / 21987.9 6.0 1.2 7.8
2019-Dec-07 21:00N 53°30' W 157°24'0 0.0 240 / 24987.2 5.8 0.7 7.8
2019-Dec-07 20:00N 53°30' W 157°24'0 0.0 270 / 21986.8 6.1 0.6 7.8
2019-Dec-07 19:00N 53°30' W 157°24'0 0.0 250 / 17986.2 6.3 0.1 7.8
2019-Dec-07 18:00N 53°30' W 157°24'7 7.1 280 / 17985.5 6.3 0.4 7.7
2019-Dec-07 17:00N 53°30' W 157°36'1110.7 270 / 15985.1 6.4 0.4 7.8
2019-Dec-07 16:00N 53°30' W 157°54'9 9.3 260 / 15984.7 6.1 1.1 7.7
2019-Dec-07 15:00N 53°36' W 158°06'1110.7 240 / 20985.0 6.0 0.9 7.6
2019-Dec-07 14:00N 53°36' W 158°24'1110.7 260 / 21984.8 6.3-1.2 7.3
2019-Dec-07 13:00N 53°36' W 158°42'7 7.0 240 / 27984.5 6.3 0.2 7.6
2019-Dec-07 12:00N 53°42' W 158°48'0 0.0 240 / 31983.7 6.4-0.8 7.7
2019-Dec-07 11:00N 53°42' W 158°48'1110.7 240 / 28983.6 6.6-0.4 7.8
2019-Dec-07 10:00N 53°42' W 159°06'1110.7 230 / 33982.8 6.6-0.3 7.7
2019-Dec-07 09:00N 53°42' W 159°24'9 9.3 220 / 36982.1 6.7 0.6 7.7
2019-Dec-07 08:00N 53°36' W 159°36'1110.7 220 / 35981.6 6.7-0.4 7.4
2019-Dec-07 07:00N 53°36' W 159°54'9 9.3 220 / 40980.7 5.9 2.7 7.6
2019-Dec-07 06:00N 53°30' W 160°06'1110.7 220 / 36979.8 6.2 1.6 7.5
2019-Dec-07 05:00N 53°30' W 160°24'7 7.1 220 / 38978.9 6.5 2.5 7.6
2019-Dec-07 04:00N 53°30' W 160°36'9 9.3 220 / 38977.4 6.4 3.0 7.5
2019-Dec-07 03:00N 53°24' W 160°48'1212.3 200 / 31976.5 7.2 6.0 7.5
2019-Dec-07 02:00N 53°30' W 161°06'0 0.0 200 / 34976.4 7.6 6.5 7.5
2019-Dec-07 01:00N 53°30' W 161°06'0 0.0 180 / 28977.1 7.7 7.7 7.5
2019-Dec-07 00:00N 53°30' W 161°06'0 0.0 170 / 23978.2 7.8 7.8 7.6
2019-Dec-06 23:00N 53°30' W 161°06'0 0.0 170 / 22979.4 7.9 7.9 7.6
2019-Dec-06 22:00N 53°30' W 161°06'0 0.0 170 / 23980.7 8.0 8.0 7.6
2019-Dec-06 21:00N 53°30' W 161°06'0 0.0 180 / 24981.9 7.8 7.7
2019-Dec-06 20:00N 53°30' W 161°06'0 0.0 190 / 25982.7 8.0 7.7 7.7
2019-Dec-06 19:00N 53°30' W 161°06'0 0.0 190 / 28983.0 8.1 8.1 7.6
2019-Dec-06 18:00N 53°30' W 161°06'4 3.6 180 / 27983.7 8.0 8.0 7.6
2019-Dec-06 17:00N 53°30' W 161°00'9 9.3 190 / 29985.0 8.0 8.0 7.6
2019-Dec-06 16:00N 53°36' W 161°12'9 9.3 190 / 26985.6 8.0 8.0 7.3
2019-Dec-06 15:00N 53°42' W 161°24'7 7.1 180 / 27986.1 7.8 7.8 7.3
2019-Dec-06 14:00N 53°42' W 161°36'9 9.3 190 / 28987.1 7.7 7.7 7.3
2019-Dec-06 13:00N 53°48' W 161°48'1110.6 190 / 27987.9 7.6 7.6 7.2
2019-Dec-06 12:00N 53°48' W 162°06'9 9.3 190 / 27988.6 7.7 7.7 7.3
2019-Dec-06 11:00N 53°54' W 162°18'7 7.1 190 / 27989.6 7.8 7.6 7.3
2019-Dec-06 10:00N 53°54' W 162°30'1212.2 190 / 27990.3 7.8 7.8 8.0
2019-Dec-06 09:00N 54°00' W 162°48'1110.6 190 / 24990.8 7.7 7.7 7.6
2019-Dec-06 08:00N 54°00' W 163°06'9 9.3 190 / 24992.0 7.8 7.7 7.9
2019-Dec-06 07:00N 54°06' W 163°18'1110.6 190 / 24992.5 7.9 7.9 7.9
2019-Dec-06 06:00N 54°06' W 163°36'9 9.2 190 / 22993.1 7.7 7.7 7.6
2019-Dec-06 05:00N 54°12' W 163°48'1110.5 180 / 20993.9 7.6 7.6 7.8
2019-Dec-06 04:00N 54°12' W 164°06'1212.1 170 / 17994.7 7.6 7.6 7.7
2019-Dec-06 03:00N 54°18' W 164°24'1110.5 170 / 13995.4 7.5 7.7
2019-Dec-06 02:00N 54°18' W 164°42'1110.5 150 / 14996.2 7.3 7.3 7.6
2019-Dec-06 01:00N 54°18' W 165°00'1110.5 160 / 18996.7 7.4 7.4 7.6
2019-Dec-06 00:00N 54°18' W 165°18'9 9.2 170 / 16997.8 6.9 6.9 6.2
2019-Dec-05 23:00N 54°24' W 165°30'1010.5 130 / 10998.8 6.7 6.5 6.3
2019-Dec-05 22:00N 54°24' W 165°48'1212.1 160 / 18999.7 6.6 6.6 6.1
2019-Dec-05 21:00N 54°18' W 166°06'1413.9 360 / 21000.1 6.6 4.6 6.5
2019-Dec-05 20:00N 54°06' W 166°18'7 7.0 140 / 181000.8 6.3 5.2 6.1
2019-Dec-05 19:00N 54°00' W 166°24'7 7.0 090 / 81001.9 5.7 4.8 6.1
2019-Dec-05 18:00N 53°54' W 166°30'0 0.0 040 / 61002.8 5.8 4.6
2019-Dec-05 17:00N 53°54' W 166°30'0 0.0 040 / 21004.0 6.3 4.9
2019-Dec-05 16:00N 53°54' W 166°30'0 0.0 040 / 11004.3 6.7 4.8
2019-Dec-05 15:00N 53°54' W 166°30'0 0.0 280 / 51004.6 6.7 4.8
2019-Dec-05 14:00N 53°54' W 166°30'0 0.0 290 / 41005.0 7.1 4.8
2019-Dec-05 13:00N 53°54' W 166°30'0 0.0 270 / 61004.9 7.5 5.2
2019-Dec-05 12:00N 53°54' W 166°30'0 0.0 1004.9 8.0 5.4
2019-Dec-05 11:00N 53°54' W 166°30'0 0.0 250 / 41004.5 7.9 6.0
2019-Dec-05 10:00N 53°54' W 166°30'   310 / 31004.5 7.6 6.1
Track history (hours):
 
Tides and Currents Weather Stations Pressure Air Temp Water Temp Dewpoint Dewpoint Depression Visibility Wind Speed Wind Dir Waves Ship Positions

Oceanographic research ship Sikuliaq (USA)

Owner: Mackay Communications, Raleigh, NC. More information available from US FCC via Universal Licensing System.

Last reported at 2019-Dec-15 10:00 UTC. Time now 2019-Dec-15 11:03 UTC.
Position N 49°24' W 140°00'.

Length 80 m; draft 6.2 m.

Type: Other ship. MMSI: 338417000.

Wind from 200 at 22 knots

Barometer 1003.6 mb
Air temperature 10.8 ° C
Dewpoint 10.3 ° C
Water temperature 10.2 ° C

Date/timePositionNaut miles runAvg speedWind from/ knotsBaromVisibWave heightAir tempDewpointWater temp
2019-Dec-15 10:00N 49°24' W 140°00'1313.2 200 / 221003.6 10.810.310.2
2019-Dec-15 09:00N 49°30' W 140°18'8 7.8 200 / 211003.9 10.610.410.1
2019-Dec-15 08:00N 49°30' W 140°30'1313.1 210 / 211004.0 10.410.310.1
2019-Dec-15 07:00N 49°36' W 140°48'8 7.8 220 / 211004.0 10.310.310.1
2019-Dec-15 06:00N 49°36' W 141°00'1313.1 210 / 201004.0 10.310.310.0
2019-Dec-15 05:00N 49°42' W 141°18'8 7.8 200 / 211004.0 10.110.1 9.9
2019-Dec-15 04:00N 49°42' W 141°30'1313.1 200 / 201004.1 10.1 9.9
2019-Dec-15 03:00N 49°48' W 141°48'8 7.7 200 / 191004.2 10.1 10.0
2019-Dec-15 02:00N 49°48' W 142°00'8 7.7 190 / 191004.4 10.010.0 9.9
2019-Dec-15 01:00N 49°48' W 142°12'4 3.9 200 / 151004.8 10.010.010.0
2019-Dec-15 00:00N 49°48' W 142°06'0 0.0 200 / 151005.1 10.010.010.0
2019-Dec-14 23:00N 49°48' W 142°06'4 3.9 210 / 161005.6 10.1 9.9 9.9
2019-Dec-14 22:00N 49°48' W 142°12'0 0.0 160 / 191006.0 9.5 9.5 9.9
2019-Dec-14 21:00N 49°48' W 142°12'4 3.9 160 / 201007.0 9.4 9.1 9.9
2019-Dec-14 20:00N 49°48' W 142°06'4 3.9 160 / 231007.9 9.0 8.4 9.9
2019-Dec-14 19:00N 49°48' W 142°12'8 7.7 170 / 271008.3 8.3 7.4 9.9
2019-Dec-14 18:00N 49°48' W 142°24'1211.6 170 / 251008.7 8.0 7.1 9.9
2019-Dec-14 17:00N 49°48' W 142°42'1211.6 180 / 231009.0 7.7 6.3 9.8
2019-Dec-14 16:00N 49°48' W 143°00'10 9.8 190 / 231009.2 7.9 5.210.0
2019-Dec-14 15:00N 49°54' W 143°12'1211.6 190 / 211009.5 8.5 3.210.0
2019-Dec-14 14:00N 49°54' W 143°30'1211.6 180 / 191009.9 8.2 1.710.0
2019-Dec-14 13:00N 49°54' W 143°48'8 7.7 200 / 161010.7 8.0 2.3 9.9
2019-Dec-14 12:00N 49°54' W 144°00'1211.6 210 / 161010.7 7.9-0.3 9.9
2019-Dec-14 11:00N 49°54' W 144°18'1211.6 220 / 121011.2 7.6 0.310.0
2019-Dec-14 10:00N 49°54' W 144°36'8 7.7 230 / 151011.5 7.5 0.610.1
2019-Dec-14 09:00N 49°54' W 144°48'1211.6 240 / 151011.9 7.5-0.4 9.9
2019-Dec-14 08:00N 49°54' W 145°06'8 7.7 250 / 131012.0 7.2 0.8 9.9
2019-Dec-14 07:00N 49°54' W 145°18'0 0.0 250 / 151011.8 7.1 0.8 9.9
2019-Dec-14 06:00N 49°54' W 145°18'0 0.0 280 / 161011.9 7.3-1.0 9.9
2019-Dec-14 05:00N 49°54' W 145°18'0 0.0 270 / 181011.6 7.4-0.1 9.9
2019-Dec-14 04:00N 49°54' W 145°18'4 3.9 300 / 191011.1 7.3-0.6 9.9
2019-Dec-14 03:00N 49°54' W 145°12'6 6.0 300 / 201010.5 7.2 0.8 9.9
2019-Dec-14 02:00N 50°00' W 145°12'0 0.0 300 / 291009.2 7.3-1.2 9.9
2019-Dec-14 01:00N 50°00' W 145°12'4 3.9 290 / 231008.6 7.2 0.810.5
2019-Dec-14 00:00N 50°00' W 145°06'0 0.0 300 / 271007.6 7.5 0.1 9.9
2019-Dec-13 23:00N 50°00' W 145°06'0 0.0 300 / 221006.9 7.4 2.0 9.9
2019-Dec-13 22:00N 50°00' W 145°06'0 0.0 300 / 261006.3 7.2 3.1 9.9
2019-Dec-13 21:00N 50°00' W 145°06'8 7.7 330 / 141006.1 6.1 2.5 9.9
2019-Dec-13 20:00N 50°00' W 145°18'1313.0 340 / 251005.3 5.4 2.510.0
2019-Dec-13 19:00N 49°54' W 145°36'1211.6 320 / 131005.4 7.2 1.510.0
2019-Dec-13 18:00N 49°54' W 145°54'10 9.8 330 / 101005.0 6.3 2.4 9.9
2019-Dec-13 17:00N 49°48' W 146°06'75 2.8 1004.5 6.1 2.3 9.8
2019-Dec-12 14:00N 49°36' W 148°00'0 0.0 260 / 29994.6 7.9 1.5 9.6
2019-Dec-12 13:00N 49°36' W 148°00'0 0.0 260 / 34993.8 7.6-0.1 9.6
2019-Dec-12 12:00N 49°36' W 148°00'4 3.9 250 / 42992.7 7.7 0.6 9.7
2019-Dec-12 11:00N 49°36' W 148°06'4 3.9 250 / 36991.3 7.1 1.2 9.8
2019-Dec-12 10:00N 49°36' W 148°12'0 0.0 260 / 40990.4 7.7 0.7 9.7
2019-Dec-12 09:00N 49°36' W 148°12'0 0.0 260 / 42989.5 7.2 0.9 9.7
2019-Dec-12 08:00N 49°36' W 148°12'0 0.0 250 / 41987.9 7.7 0.9 9.7
2019-Dec-12 07:00N 49°36' W 148°12'6 6.0 260 / 39987.1 7.7-1.0 9.7
2019-Dec-12 06:00N 49°30' W 148°12'0 0.0 260 / 43986.4 7.6-1.2 9.8
2019-Dec-12 05:00N 49°30' W 148°12'4 3.9 260 / 40985.5 6.7 1.8 9.8
2019-Dec-12 04:00N 49°30' W 148°18'0 0.0 260 / 36984.7 7.4 2.0 9.8
2019-Dec-12 03:00N 49°30' W 148°18'0 0.0 260 / 35983.7 7.9 2.0 9.8
2019-Dec-12 02:00N 49°30' W 148°18'4 3.9 260 / 43982.5 8.0 0.7 9.8
2019-Dec-12 01:00N 49°30' W 148°24'0 0.0 270 / 39981.6 8.2 1.7 9.8
2019-Dec-12 00:00N 49°30' W 148°24'4 3.9 270 / 36980.6 7.6 3.4 9.8
2019-Dec-11 23:00N 49°30' W 148°30'0 0.0 270 / 44979.2 8.1 3.2 9.8
2019-Dec-11 22:00N 49°30' W 148°30'4 3.9 280 / 48978.3 7.6 2.8 9.8
2019-Dec-11 21:00N 49°30' W 148°36'0 0.0 270 / 42977.1 7.9 4.1 9.8
2019-Dec-11 20:00N 49°30' W 148°36'4 3.9 270 / 40976.2 7.0 3.3 9.8
2019-Dec-11 19:00N 49°30' W 148°42'4 3.9 270 / 39974.3 8.3 4.7 9.8
2019-Dec-11 18:00N 49°30' W 148°48'1211.7 270 / 23973.2 8.7 5.1 9.8
2019-Dec-11 17:00N 49°30' W 149°06'1211.7 280 / 34971.8 7.8 5.3 9.8
2019-Dec-11 16:00N 49°30' W 149°24'8 7.8 280 / 26970.7 8.3 5.510.0
2019-Dec-11 15:00N 49°30' W 149°36'1211.7 280 / 27969.6 8.3 5.8 9.9
2019-Dec-11 14:00N 49°30' W 149°54'1211.7 280 / 24968.8 8.1 6.8 9.8
2019-Dec-11 13:00N 49°30' W 150°12'1313.2 290 / 27967.6 8.9 6.7 9.8
2019-Dec-11 12:00N 49°24' W 150°30'8 7.8 280 / 31966.7 8.3 7.0 9.8
2019-Dec-11 11:00N 49°24' W 150°42'1313.2 280 / 25966.3 7.5 5.1 9.6
2019-Dec-11 10:00N 49°18' W 151°00'8 7.8 280 / 18965.9 8.2 6.7 9.6
2019-Dec-11 09:00N 49°18' W 151°12'8 7.8 270 / 16966.0 7.8 5.9 9.6
2019-Dec-11 08:00N 49°18' W 151°24'7 7.2 280 / 25965.4 7.8 5.9 9.6
2019-Dec-11 07:00N 49°24' W 151°30'10 9.8 290 / 22964.9 8.2 7.3 9.5
2019-Dec-11 06:00N 49°30' W 151°42'20 9.8 300 / 18964.7 8.5 7.5 9.4
2019-Dec-11 04:00N 49°42' W 152°06'10 9.8 320 / 11964.9 8.9 7.7 9.2
2019-Dec-11 03:00N 49°48' W 152°18'8 7.7 330 / 10965.0 8.9 7.9 9.3
2019-Dec-11 02:00N 49°48' W 152°30'10 9.8 340 / 8964.9 9.0 7.6 9.2
2019-Dec-11 01:00N 49°54' W 152°42'1211.6 010 / 7965.0 9.0 7.5 9.3
2019-Dec-11 00:00N 49°54' W 153°00'10 9.8 040 / 8965.0 9.0 7.5 9.1
2019-Dec-10 23:00N 50°00' W 153°12'4 3.9 070 / 10964.9 8.9 7.3 9.0
2019-Dec-10 22:00N 50°00' W 153°18'0 0.0 110 / 12965.0 8.7 7.6 8.9
2019-Dec-10 21:00N 50°00' W 153°18'0 0.0 100 / 13965.0 8.8 8.1 8.9
2019-Dec-10 20:00N 50°00' W 153°18'4 3.9 070 / 11965.6 8.7 7.9 8.9
2019-Dec-10 19:00N 50°00' W 153°12'0 0.0 010 / 30966.5 6.4 6.3 8.9
2019-Dec-10 17:00N 50°00' W 153°12'0 0.0 040 / 32969.2 6.5 4.8 9.0
2019-Dec-10 16:00N 50°00' W 153°12'0 0.0 050 / 33970.8 6.7 5.0 8.9
2019-Dec-10 15:00N 50°00' W 153°12'0 0.0 050 / 32973.1 6.5 3.8 8.9
2019-Dec-10 14:00N 50°00' W 153°12'0 0.0 070 / 27975.1 6.6 4.1 8.9
2019-Dec-10 13:00N 50°00' W 153°12'7 7.1 090 / 27977.5 6.6 3.3 8.9
2019-Dec-10 12:00N 50°06' W 153°18'7 7.1 080 / 26978.5 7.9 3.5 8.7
2019-Dec-10 11:00N 50°12' W 153°24'1312.6 080 / 17980.7 6.9 3.5 8.5
2019-Dec-10 10:00N 50°24' W 153°30'7 7.1 100 / 15982.1 6.5 3.1 8.4
2019-Dec-10 09:00N 50°30' W 153°36'7 7.1 160 / 8983.6 5.9 2.7 8.3
2019-Dec-10 08:00N 50°36' W 153°42'1312.6 170 / 15984.2 5.6 1.9 8.3
2019-Dec-10 07:00N 50°48' W 153°48'7 7.1 160 / 17984.7 5.4 2.0 8.3
2019-Dec-10 06:00N 50°54' W 153°54'7 7.1 160 / 11985.2 5.1 1.4 8.4
2019-Dec-10 05:00N 51°00' W 154°00'1312.6 190 / 21985.4 4.9 2.2 8.4
2019-Dec-10 04:00N 51°12' W 154°06'7 7.1 190 / 11985.4 5.6 1.5 8.4
2019-Dec-10 03:00N 51°18' W 154°12'6 6.0 210 / 15984.8 5.6 1.2 8.4
2019-Dec-10 02:00N 51°24' W 154°12'6 6.0 200 / 13984.2 5.6 1.5 8.4
2019-Dec-10 01:00N 51°30' W 154°12'6 6.0 210 / 15983.7 5.3 0.8 8.4
2019-Dec-10 00:00N 51°24' W 154°12'0 0.0 230 / 11983.0 4.8 0.8 8.4
2019-Dec-09 23:00N 51°24' W 154°12'0 0.0 240 / 16982.6 4.1 1.2 8.4
2019-Dec-09 22:00N 51°24' W 154°12'0 0.0 210 / 8982.2 4.6 1.6 8.4
2019-Dec-09 21:00N 51°24' W 154°12'0 0.0 260 / 11982.0 4.0 1.9 8.5
2019-Dec-09 20:00N 51°24' W 154°12'0 0.0 250 / 14981.6 4.4 1.5 8.4
2019-Dec-09 19:00N 51°24' W 154°12'0 0.0 200 / 11980.9 4.8 1.7 8.4
2019-Dec-09 18:00N 51°24' W 154°12'6 6.0 170 / 13980.2 4.0 1.4 8.5
2019-Dec-09 17:00N 51°30' W 154°12'7 7.5 210 / 11979.6 5.3 1.2 8.4
2019-Dec-09 16:00N 51°30' W 154°00'7 7.5 200 / 11979.8 5.0 1.7 8.5
2019-Dec-09 15:00N 51°30' W 153°48'7 7.1 190 / 26979.3 4.8 0.7 8.5
2019-Dec-09 14:00N 51°36' W 153°42'7 7.5 200 / 26979.0 6.4-1.5 8.4
2019-Dec-09 13:00N 51°36' W 153°30'7 7.5 220 / 30978.6 6.2-1.1 8.4
2019-Dec-09 12:00N 51°36' W 153°18'4 3.7 230 / 29978.1 6.4 0.7 8.6
2019-Dec-09 11:00N 51°36' W 153°12'10 9.6 220 / 30977.2 5.4 2.0 8.7
2019-Dec-09 10:00N 51°42' W 153°00'4 3.7 230 / 30976.2 7.0 2.8 8.7
2019-Dec-09 09:00N 51°42' W 153°06'10 9.5 240 / 34974.8 7.0 2.5 8.4
2019-Dec-09 08:00N 51°48' W 153°18'1312.6 250 / 31973.5 6.8 3.5 8.4
2019-Dec-09 07:00N 51°54' W 153°36'7 7.0 250 / 40970.4 6.7 3.4 8.2
2019-Dec-09 06:00N 52°00' W 153°42'10 9.5 260 / 37968.2 6.6 3.4 8.2
2019-Dec-09 05:00N 52°06' W 153°54'7 7.0 260 / 37965.6 6.2 4.4 8.1
2019-Dec-09 04:00N 52°12' W 154°00'7 7.0 270 / 35963.5 6.1 5.2 7.8
2019-Dec-09 03:00N 52°18' W 154°06'1312.5 240 / 22962.2 7.6 7.6 7.7
2019-Dec-09 02:00N 52°30' W 154°12'0 0.0 110 / 17962.7 8.8 8.8 7.9
2019-Dec-09 01:00N 52°30' W 154°12'4 3.7 110 / 23964.6 9.0 9.0 7.8
2019-Dec-09 00:00N 52°30' W 154°18'4 3.7 120 / 22966.7 8.8 8.8 7.9
2019-Dec-08 23:00N 52°30' W 154°12'0 0.0 130 / 20968.7 9.0 9.0 7.9
2019-Dec-08 22:00N 52°30' W 154°12'0 0.0 130 / 22969.9 9.0 7.8
2019-Dec-08 21:00N 52°30' W 154°12'0 0.0 040 / 24972.4 7.4 7.4 7.9
2019-Dec-08 20:00N 52°30' W 154°12'0 0.0 020 / 37975.5 5.8 5.2 7.8
2019-Dec-08 18:00N 52°30' W 154°12'9 9.4 050 / 41982.6 4.8 3.7 7.9
2019-Dec-08 17:00N 52°36' W 154°24'9 9.4 060 / 29987.1 5.7 3.1 7.9
2019-Dec-08 16:00N 52°42' W 154°36'9 9.4 070 / 28989.4 7.0 2.4 7.8
2019-Dec-08 15:00N 52°48' W 154°48'7 7.3 080 / 21992.2 7.0 2.6 7.8
2019-Dec-08 14:00N 52°48' W 155°00'1212.4 100 / 18994.1 7.0 2.2 7.7
2019-Dec-08 13:00N 52°54' W 155°18'7 7.2 110 / 16995.3 7.0 2.7 7.6
2019-Dec-08 12:00N 52°54' W 155°30'9 9.4 140 / 19996.5 7.1 1.0 7.7
2019-Dec-08 11:00N 53°00' W 155°42'1110.8 160 / 20996.9 6.7 1.6 7.6
2019-Dec-08 10:00N 53°00' W 156°00'9 9.4 170 / 34996.5 6.0 0.5 7.5
2019-Dec-08 09:00N 53°06' W 156°12'1110.8 180 / 23996.8 6.6 1.4 7.3
2019-Dec-08 08:00N 53°06' W 156°30'7 7.2 190 / 20996.2 6.4 2.0 7.4
2019-Dec-08 07:00N 53°06' W 156°42'1212.4 210 / 19995.0 6.5 0.9 7.3
2019-Dec-08 06:00N 53°12' W 157°00'7 7.2 200 / 22994.7 6.5 1.4 7.2
2019-Dec-08 05:00N 53°12' W 157°12'1110.8 210 / 19994.2 6.3 1.5 7.4
2019-Dec-08 04:00N 53°12' W 157°30'7 7.0 210 / 22993.4 6.6 0.3 7.5
2019-Dec-08 03:00N 53°18' W 157°24'1312.5 220 / 24992.8 6.2 0.2 7.4
2019-Dec-08 02:00N 53°30' W 157°18'0 0.0 230 / 22991.8 6.0 0.7 7.8
2019-Dec-08 01:00N 53°30' W 157°18'4 3.6 230 / 23990.7 6.3 0.9 7.7
2019-Dec-08 00:00N 53°30' W 157°24'0 0.0 230 / 23989.6 6.1 0.3 7.8
2019-Dec-07 23:00N 53°30' W 157°24'0 0.0 230 / 22988.6 6.0 0.6 7.8
2019-Dec-07 22:00N 53°30' W 157°24'0 0.0 240 / 21987.9 6.0 1.2 7.8
2019-Dec-07 21:00N 53°30' W 157°24'0 0.0 240 / 24987.2 5.8 0.7 7.8
2019-Dec-07 20:00N 53°30' W 157°24'0 0.0 270 / 21986.8 6.1 0.6 7.8
2019-Dec-07 19:00N 53°30' W 157°24'0 0.0 250 / 17986.2 6.3 0.1 7.8
2019-Dec-07 18:00N 53°30' W 157°24'7 7.1 280 / 17985.5 6.3 0.4 7.7
2019-Dec-07 17:00N 53°30' W 157°36'1110.7 270 / 15985.1 6.4 0.4 7.8
2019-Dec-07 16:00N 53°30' W 157°54'9 9.3 260 / 15984.7 6.1 1.1 7.7
2019-Dec-07 15:00N 53°36' W 158°06'1110.7 240 / 20985.0 6.0 0.9 7.6
2019-Dec-07 14:00N 53°36' W 158°24'1110.7 260 / 21984.8 6.3-1.2 7.3
2019-Dec-07 13:00N 53°36' W 158°42'7 7.0 240 / 27984.5 6.3 0.2 7.6
2019-Dec-07 12:00N 53°42' W 158°48'0 0.0 240 / 31983.7 6.4-0.8 7.7
2019-Dec-07 11:00N 53°42' W 158°48'1110.7 240 / 28983.6 6.6-0.4 7.8
2019-Dec-07 10:00N 53°42' W 159°06'1110.7 230 / 33982.8 6.6-0.3 7.7
2019-Dec-07 09:00N 53°42' W 159°24'9 9.3 220 / 36982.1 6.7 0.6 7.7
2019-Dec-07 08:00N 53°36' W 159°36'1110.7 220 / 35981.6 6.7-0.4 7.4
2019-Dec-07 07:00N 53°36' W 159°54'9 9.3 220 / 40980.7 5.9 2.7 7.6
2019-Dec-07 06:00N 53°30' W 160°06'1110.7 220 / 36979.8 6.2 1.6 7.5
2019-Dec-07 05:00N 53°30' W 160°24'7 7.1 220 / 38978.9 6.5 2.5 7.6
2019-Dec-07 04:00N 53°30' W 160°36'9 9.3 220 / 38977.4 6.4 3.0 7.5
2019-Dec-07 03:00N 53°24' W 160°48'1212.3 200 / 31976.5 7.2 6.0 7.5
2019-Dec-07 02:00N 53°30' W 161°06'0 0.0 200 / 34976.4 7.6 6.5 7.5
2019-Dec-07 01:00N 53°30' W 161°06'0 0.0 180 / 28977.1 7.7 7.7 7.5
2019-Dec-07 00:00N 53°30' W 161°06'0 0.0 170 / 23978.2 7.8 7.8 7.6
2019-Dec-06 23:00N 53°30' W 161°06'0 0.0 170 / 22979.4 7.9 7.9 7.6
2019-Dec-06 22:00N 53°30' W 161°06'0 0.0 170 / 23980.7 8.0 8.0 7.6
2019-Dec-06 21:00N 53°30' W 161°06'0 0.0 180 / 24981.9 7.8 7.7
2019-Dec-06 20:00N 53°30' W 161°06'0 0.0 190 / 25982.7 8.0 7.7 7.7
2019-Dec-06 19:00N 53°30' W 161°06'0 0.0 190 / 28983.0 8.1 8.1 7.6
2019-Dec-06 18:00N 53°30' W 161°06'4 3.6 180 / 27983.7 8.0 8.0 7.6
2019-Dec-06 17:00N 53°30' W 161°00'9 9.3 190 / 29985.0 8.0 8.0 7.6
2019-Dec-06 16:00N 53°36' W 161°12'9 9.3 190 / 26985.6 8.0 8.0 7.3
2019-Dec-06 15:00N 53°42' W 161°24'7 7.1 180 / 27986.1 7.8 7.8 7.3
2019-Dec-06 14:00N 53°42' W 161°36'9 9.3 190 / 28987.1 7.7 7.7 7.3
2019-Dec-06 13:00N 53°48' W 161°48'1110.6 190 / 27987.9 7.6 7.6 7.2
2019-Dec-06 12:00N 53°48' W 162°06'9 9.3 190 / 27988.6 7.7 7.7 7.3
2019-Dec-06 11:00N 53°54' W 162°18'7 7.1 190 / 27989.6 7.8 7.6 7.3
2019-Dec-06 10:00N 53°54' W 162°30'1212.2 190 / 27990.3 7.8 7.8 8.0
2019-Dec-06 09:00N 54°00' W 162°48'1110.6 190 / 24990.8 7.7 7.7 7.6
2019-Dec-06 08:00N 54°00' W 163°06'9 9.3 190 / 24992.0 7.8 7.7 7.9
2019-Dec-06 07:00N 54°06' W 163°18'1110.6 190 / 24992.5 7.9 7.9 7.9
2019-Dec-06 06:00N 54°06' W 163°36'9 9.2 190 / 22993.1 7.7 7.7 7.6
2019-Dec-06 05:00N 54°12' W 163°48'1110.5 180 / 20993.9 7.6 7.6 7.8
2019-Dec-06 04:00N 54°12' W 164°06'1212.1 170 / 17994.7 7.6 7.6 7.7
2019-Dec-06 03:00N 54°18' W 164°24'1110.5 170 / 13995.4 7.5 7.7
2019-Dec-06 02:00N 54°18' W 164°42'1110.5 150 / 14996.2 7.3 7.3 7.6
2019-Dec-06 01:00N 54°18' W 165°00'1110.5 160 / 18996.7 7.4 7.4 7.6
2019-Dec-06 00:00N 54°18' W 165°18'9 9.2 170 / 16997.8 6.9 6.9 6.2
2019-Dec-05 23:00N 54°24' W 165°30'1010.5 130 / 10998.8 6.7 6.5 6.3
2019-Dec-05 22:00N 54°24' W 165°48'1212.1 160 / 18999.7 6.6 6.6 6.1
2019-Dec-05 21:00N 54°18' W 166°06'1413.9 360 / 21000.1 6.6 4.6 6.5
2019-Dec-05 20:00N 54°06' W 166°18'7 7.0 140 / 181000.8 6.3 5.2 6.1
2019-Dec-05 19:00N 54°00' W 166°24'7 7.0 090 / 81001.9 5.7 4.8 6.1
2019-Dec-05 18:00N 53°54' W 166°30'0 0.0 040 / 61002.8 5.8 4.6
2019-Dec-05 17:00N 53°54' W 166°30'0 0.0 040 / 21004.0 6.3 4.9
2019-Dec-05 16:00N 53°54' W 166°30'0 0.0 040 / 11004.3 6.7 4.8
2019-Dec-05 15:00N 53°54' W 166°30'0 0.0 280 / 51004.6 6.7 4.8
2019-Dec-05 14:00N 53°54' W 166°30'0 0.0 290 / 41005.0 7.1 4.8
2019-Dec-05 13:00N 53°54' W 166°30'0 0.0 270 / 61004.9 7.5 5.2
2019-Dec-05 12:00N 53°54' W 166°30'0 0.0 1004.9 8.0 5.4
2019-Dec-05 11:00N 53°54' W 166°30'0 0.0 250 / 41004.5 7.9 6.0
2019-Dec-05 10:00N 53°54' W 166°30'   310 / 31004.5 7.6 6.1

Dump ship's entire track history